Delaware, OH (43015)

6:46 AM EDT on April 26, 2015 (GMT -0400)
Cheshire Crossing-West | | Change Station
CLOSE
Current Station
Personal Weather Station
Location: Delaware, OH
Elevation: 925 ft
Nearby Weather Stations

Elev 925 ft 40.24 °N, 83.05 °W | Updated 2 minutes ago

Scattered Clouds
Scattered Clouds
36.0 °F
Feels Like 32 °F
N
5.3
Wind Variable Wind from South

Today
High -- | Low -- °F
--% Chance of Precip.
Yesterday
High -- | Low -- °F
Precip. -- in
6:38 AM 8:22 PM
First Quarter, 54% visible
Pressure 29.78 in
Visibility 10.0 miles
Clouds Scattered Clouds 12000 ft
Windchill 32 °F
Dew Point 33 °F
Humidity 89%
Rainfall 0.00 in
Snow Depth Not available.
UV 0 out of 12
Pollen 8.20 out of 12
Air Quality Not available.
Flu Activity Regional
METAR KDLZ 261038Z AUTO 36008KT 10SM SCT120 01/00 A2978 RMK AO2

More Conditions Fewer Conditions

Pressure 29.78 in
Visibility 10.0 miles
Clouds Scattered Clouds 12000 ft
Windchill 32 °F
Dew Point 33 °F
Humidity 89%
Rainfall 0.00 in
Snow Depth Not available.
UV 0 out of 12
Pollen 8.20 out of 12
Air Quality Not available.
Flu Activity Regional
METAR KDLZ 261038Z AUTO 36008KT 10SM SCT120 01/00 A2978 RMK AO2

More Conditions Fewer Conditions

The full scope of the disaster following a powerful 7.8-magnitude earthquake in Nepal may not come into view for days, but global charities are already sending emergency aid. Click to see how you can help.

10-Day Weather Forecast

Almanac

Astronomy

Apr. 26, 2015 Rise Set
Actual Time
Civil Twilight
Nautical Twilight
Astronomical Twilight
Moon
Length of Visible Light
Length of Day
Tomorrow will be .
, % of the Moon is Illuminated

Today's Extremes

State Highs State Lows

Community

WunderPhotos

Upload Photos

1,816,962 photos uploaded!

WunderBlogs® & News

Nearby

Air Quality

  Air Quality AQ Index Pollutant
Not available.

Snow Depth

Station Depth Elevation

Earthquake Activity

City Distance Mag. Time & Date
Minimum magnitude displayed is 2.5.

Coastal Water Temperatures

Place Temperature

Stations

Nearby Weather Stations

Station Location Temp. Windchill Dew Point Humidity Wind Precip. Elev Updated Type